createdAt,value
2023-04-26T00:01:31.738Z,96822.91
2023-04-26T00:03:58.745Z,96822.78
2023-04-26T00:06:27.071Z,96826.28
2023-04-26T00:08:54.184Z,96816.41
2023-04-26T00:11:21.240Z,96820.94
2023-04-26T00:13:48.058Z,96822.78
2023-04-26T00:16:14.868Z,96831.66
2023-04-26T00:18:41.702Z,96827.41
2023-04-26T00:21:08.565Z,96830.44
2023-04-26T00:23:36.570Z,96837.09
2023-04-26T00:26:03.732Z,96833.03
2023-04-26T00:28:31.396Z,96829.78
2023-04-26T00:30:58.353Z,96824.91
2023-04-26T00:33:25.905Z,96825.34
2023-04-26T00:35:52.949Z,96832.69
2023-04-26T00:38:19.836Z,96825.94
2023-04-26T00:40:46.738Z,96825.25
2023-04-26T00:43:13.566Z,96829.91
2023-04-26T00:45:40.450Z,96820.38
2023-04-26T00:48:07.499Z,96822.50
2023-04-26T00:50:34.533Z,96822.63
2023-04-26T00:53:03.671Z,96820.28
2023-04-26T00:55:30.804Z,96830.97
2023-04-26T00:57:57.729Z,96827.44
2023-04-26T01:00:25.777Z,96826.59
2023-04-26T01:02:52.853Z,96832.94
2023-04-26T01:05:19.838Z,96828.59
2023-04-26T01:07:47.458Z,96831.56
2023-04-26T01:10:14.231Z,96826.50
2023-04-26T01:12:41.440Z,96820.75
2023-04-26T01:15:11.318Z,96822.19
2023-04-26T01:17:38.727Z,96822.66
2023-04-26T01:20:08.848Z,96823.09
2023-04-26T01:22:36.458Z,96827.06
2023-04-26T01:25:07.560Z,96825.66
2023-04-26T01:27:34.825Z,96823.28
2023-04-26T01:30:01.931Z,96825.38
2023-04-26T01:32:31.199Z,96816.66
2023-04-26T01:34:58.467Z,96818.66
2023-04-26T01:37:25.383Z,96822.31
2023-04-26T01:39:52.677Z,96810.06
2023-04-26T01:42:20.383Z,96810.06
2023-04-26T01:44:47.229Z,96812.91
2023-04-26T01:47:14.060Z,96809.53
2023-04-26T01:49:41.596Z,96802.66
2023-04-26T01:52:08.498Z,96803.78
2023-04-26T01:54:35.316Z,96810.41
2023-04-26T01:57:02.700Z,96804.66
2023-04-26T01:59:29.754Z,96811.28
2023-04-26T02:01:58.910Z,96809.16
2023-04-26T02:04:27.664Z,96820.31
2023-04-26T02:06:54.786Z,96817.38
2023-04-26T02:09:24.026Z,96812.75
2023-04-26T02:11:50.811Z,96819.38
2023-04-26T02:14:17.670Z,96824.31
2023-04-26T02:16:44.774Z,96829.16
2023-04-26T02:19:13.496Z,96828.06
2023-04-26T02:21:57.694Z,96829.91
2023-04-26T02:24:25.452Z,96827.50
2023-04-26T02:26:54.329Z,96828.66
2023-04-26T02:29:29.422Z,96823.56
2023-04-26T02:32:03.140Z,96827.22
2023-04-26T02:34:29.964Z,96827.22
2023-04-26T02:36:56.940Z,96824.41
2023-04-26T02:39:24.723Z,96826.25
2023-04-26T02:41:51.567Z,96826.97
2023-04-26T02:44:18.420Z,96826.97
2023-04-26T02:46:45.297Z,96824.13
2023-04-26T02:49:12.149Z,96822.16
2023-04-26T02:51:39.017Z,96824.69
2023-04-26T02:54:07.060Z,96822.72
2023-04-26T02:56:34.551Z,96816.53
2023-04-26T02:59:01.603Z,96816.53
2023-04-26T03:01:28.420Z,96827.22
2023-04-26T03:03:55.687Z,96823.56
2023-04-26T03:06:23.525Z,96820.06
2023-04-26T03:08:50.721Z,96821.75
2023-04-26T03:11:17.679Z,96818.09
2023-04-26T03:13:44.647Z,96824.13
2023-04-26T03:16:11.599Z,96817.66
2023-04-26T03:18:38.449Z,96820.34
2023-04-26T03:21:06.649Z,96817.50
2023-04-26T03:23:34.101Z,96822.75
2023-04-26T03:26:01.155Z,96813.72
2023-04-26T03:28:28.339Z,96816.25
2023-04-26T03:30:55.675Z,96811.75
2023-04-26T03:33:22.827Z,96814.28
2023-04-26T03:35:49.819Z,96815.97
2023-04-26T03:38:17.484Z,96814.97
2023-04-26T03:40:45.219Z,96806.97
2023-04-26T03:43:12.073Z,96815.81
2023-04-26T03:45:38.876Z,96806.13
2023-04-26T03:48:07.158Z,96817.81
2023-04-26T03:50:34.045Z,96816.13
2023-04-26T03:53:00.907Z,96826.09
2023-04-26T03:55:27.980Z,96825.25
2023-04-26T03:57:54.877Z,96821.03
2023-04-26T04:00:23.481Z,96824.69
2023-04-26T04:02:50.643Z,96822.84
2023-04-26T04:05:24.156Z,96823.84
2023-04-26T04:07:50.984Z,96816.84
2023-04-26T04:10:17.814Z,96817.94
2023-04-26T04:12:45.504Z,96820.78
2023-04-26T04:15:12.489Z,96812.19
2023-04-26T04:17:44.591Z,96819.38
2023-04-26T04:20:12.439Z,96824.00
2023-04-26T04:22:40.285Z,96817.81
2023-04-26T04:25:13.711Z,96821.31
2023-04-26T04:27:43.301Z,96824.97
2023-04-26T04:30:12.088Z,96824.97
2023-04-26T04:32:40.306Z,96824.97
2023-04-26T04:35:07.811Z,96828.66
2023-04-26T04:37:35.223Z,96831.31
2023-04-26T04:40:04.660Z,96825.25
2023-04-26T04:42:34.870Z,96832.31
2023-04-26T04:45:03.308Z,96834.97
2023-04-26T04:47:30.272Z,96836.78
2023-04-26T04:49:57.169Z,96834.09
2023-04-26T04:52:24.025Z,96833.00
2023-04-26T04:54:51.101Z,96835.66
2023-04-26T04:57:18.808Z,96843.53
2023-04-26T04:59:47.402Z,96842.69
2023-04-26T05:02:14.393Z,96839.06
2023-04-26T05:04:41.588Z,96837.22
2023-04-26T05:07:09.397Z,96854.09
2023-04-26T05:09:41.129Z,96851.00
2023-04-26T05:12:08.171Z,96852.09
2023-04-26T05:14:35.326Z,96851.97
2023-04-26T05:17:02.188Z,96858.16
2023-04-26T05:19:29.127Z,96866.03
2023-04-26T05:21:57.807Z,96867.69
2023-04-26T05:24:24.712Z,96871.94
2023-04-26T05:26:51.862Z,96868.00
2023-04-26T05:29:38.182Z,96866.00
2023-04-26T05:32:24.761Z,96877.25
2023-04-26T05:35:02.643Z,96873.31
2023-04-26T05:37:30.698Z,96874.75
2023-04-26T05:39:57.747Z,96880.53
2023-04-26T05:42:24.539Z,96877.56
2023-04-26T05:44:51.390Z,96881.63
2023-04-26T05:47:18.290Z,96879.53
2023-04-26T05:49:45.445Z,96876.44
2023-04-26T05:52:12.282Z,96880.50
2023-04-26T05:54:39.933Z,96873.75
2023-04-26T05:57:06.932Z,96874.16
2023-04-26T05:59:36.971Z,96879.06
2023-04-26T06:02:05.050Z,96877.53
2023-04-26T06:04:32.828Z,96883.28
2023-04-26T06:07:10.407Z,96886.19
2023-04-26T06:09:37.355Z,96891.66
2023-04-26T06:12:04.669Z,96893.06
2023-04-26T06:14:34.621Z,96891.66
2023-04-26T06:17:05.971Z,96895.41
2023-04-26T06:19:32.893Z,96903.00
2023-04-26T06:21:59.725Z,96903.41
2023-04-26T06:24:26.658Z,96898.44
2023-04-26T06:26:53.811Z,96906.03
2023-04-26T06:29:21.562Z,96906.59
2023-04-26T06:31:48.634Z,96906.31
2023-04-26T06:34:16.132Z,96909.38
2023-04-26T06:36:43.004Z,96909.75
2023-04-26T06:39:11.171Z,96899.44
2023-04-26T06:41:39.014Z,96899.88
2023-04-26T06:44:05.983Z,96899.25
2023-04-26T06:46:32.900Z,96898.66
2023-04-26T06:49:01.440Z,96896.53
2023-04-26T06:51:29.630Z,96896.75
2023-04-26T06:53:59.007Z,96894.50
2023-04-26T06:56:26.035Z,96887.56
2023-04-26T06:59:01.785Z,96887.09
2023-04-26T07:01:29.554Z,96891.53
2023-04-26T07:03:59.676Z,96882.06
2023-04-26T07:06:27.004Z,96887.63
2023-04-26T07:08:54.295Z,96881.81
2023-04-26T07:11:23.403Z,96897.28
2023-04-26T07:13:52.577Z,96887.66
2023-04-26T07:16:20.026Z,96888.69
2023-04-26T07:18:48.593Z,96888.94
2023-04-26T07:21:15.842Z,96874.88
2023-04-26T07:23:42.624Z,96876.78
2023-04-26T07:26:11.502Z,96875.16
2023-04-26T07:28:38.349Z,96871.72
2023-04-26T07:31:07.789Z,96874.44
2023-04-26T07:33:35.757Z,96873.66
2023-04-26T07:36:02.890Z,96871.88
2023-04-26T07:38:29.736Z,96873.59
2023-04-26T07:40:56.634Z,96868.44
2023-04-26T07:43:23.498Z,96868.66
2023-04-26T07:45:50.337Z,96865.16
2023-04-26T07:48:17.176Z,96865.88
2023-04-26T07:50:44.166Z,96867.91
2023-04-26T07:53:11.044Z,96878.00
2023-04-26T07:55:37.953Z,96871.81
2023-04-26T07:58:04.764Z,96877.06
2023-04-26T08:00:31.638Z,96879.78
2023-04-26T08:02:58.677Z,96877.13
2023-04-26T08:05:25.955Z,96889.72
2023-04-26T08:07:52.898Z,96883.69
2023-04-26T08:10:19.811Z,96892.63
2023-04-26T08:12:46.740Z,96888.28
2023-04-26T08:15:13.663Z,96887.28
2023-04-26T08:17:41.348Z,96886.44
2023-04-26T08:20:09.618Z,96878.53
2023-04-26T08:22:36.797Z,96887.47
2023-04-26T08:25:04.668Z,96888.66
2023-04-26T08:27:31.879Z,96888.81
2023-04-26T08:29:58.701Z,96891.69
2023-04-26T08:32:26.090Z,96883.78
2023-04-26T08:34:52.982Z,96895.72
2023-04-26T08:37:19.823Z,96895.19
2023-04-26T08:39:46.927Z,96893.00
2023-04-26T08:42:16.448Z,96892.69
2023-04-26T08:44:45.592Z,96888.28
2023-04-26T08:47:48.033Z,96884.06
2023-04-26T08:50:18.583Z,96887.75
2023-04-26T08:52:50.754Z,96883.69
2023-04-26T08:55:22.484Z,96882.84
2023-04-26T08:57:50.726Z,96885.19
2023-04-26T09:00:19.622Z,96885.50
2023-04-26T09:02:49.893Z,96887.88
2023-04-26T09:05:17.368Z,96887.34
2023-04-26T09:07:48.268Z,96883.47
2023-04-26T09:10:22.205Z,96883.09
2023-04-26T09:12:53.645Z,96888.16
2023-04-26T09:15:26.432Z,96874.69
2023-04-26T09:17:53.911Z,96873.50
2023-04-26T09:20:28.974Z,96875.38
2023-04-26T09:23:09.914Z,96870.81
2023-04-26T09:25:37.482Z,96873.47
2023-04-26T09:28:19.114Z,96871.63
2023-04-26T09:30:46.203Z,96867.53
2023-04-26T09:33:13.086Z,96869.03
2023-04-26T09:35:44.308Z,96865.34
2023-04-26T09:38:14.662Z,96869.19
2023-04-26T09:40:49.980Z,96865.31
2023-04-26T09:43:19.668Z,96855.66
2023-04-26T09:45:53.546Z,96855.13
2023-04-26T09:48:30.256Z,96855.06
2023-04-26T09:50:59.628Z,96856.69
2023-04-26T09:53:31.743Z,96858.69
2023-04-26T09:56:18.916Z,96866.53
2023-04-26T09:59:02.457Z,96869.31
2023-04-26T10:01:32.661Z,96862.81
2023-04-26T10:04:04.374Z,96859.38
2023-04-26T10:06:32.843Z,96865.53
2023-04-26T10:09:01.798Z,96841.56
2023-04-26T10:11:30.450Z,96851.66
2023-04-26T10:13:57.532Z,96856.34
2023-04-26T10:16:24.659Z,96853.44
2023-04-26T10:18:51.727Z,96850.75
2023-04-26T10:21:32.544Z,96846.53
2023-04-26T10:24:00.425Z,96850.38
2023-04-26T10:26:52.712Z,96851.78
2023-04-26T10:29:21.144Z,96852.25
2023-04-26T10:32:06.203Z,96851.94
2023-04-26T10:34:35.064Z,96844.69
2023-04-26T10:37:16.745Z,96845.22
2023-04-26T10:39:45.497Z,96840.50
2023-04-26T10:42:30.742Z,96837.50
2023-04-26T10:44:59.559Z,96837.78
2023-04-26T10:47:36.923Z,96835.09
2023-04-26T10:50:12.726Z,96837.44
2023-04-26T10:53:03.507Z,96836.22
2023-04-26T10:55:41.714Z,96835.84
2023-04-26T10:58:35.309Z,96838.91
2023-04-26T11:01:18.843Z,96838.91
2023-04-26T11:03:58.737Z,96838.75
2023-04-26T11:06:26.767Z,96837.53
2023-04-26T11:08:54.467Z,96833.63
2023-04-26T11:11:26.837Z,96828.69
2023-04-26T11:13:53.652Z,96825.34
2023-04-26T11:16:20.676Z,96823.19
2023-04-26T11:18:48.207Z,96809.69
2023-04-26T11:21:17.906Z,96803.25
2023-04-26T11:23:54.585Z,96812.34
2023-04-26T11:26:22.304Z,96800.16
2023-04-26T11:28:49.581Z,96792.63
2023-04-26T11:31:19.132Z,96786.75
2023-04-26T11:33:47.792Z,96782.38
2023-04-26T11:36:17.078Z,96776.31
2023-04-26T11:38:44.167Z,96777.72
2023-04-26T11:41:11.397Z,96778.03
2023-04-26T11:43:39.816Z,96768.53
2023-04-26T11:46:08.424Z,96764.88
2023-04-26T11:48:37.524Z,96767.00
2023-04-26T11:51:07.216Z,96761.84
2023-04-26T11:53:40.289Z,96764.53
2023-04-26T11:56:18.366Z,96775.13
2023-04-26T11:58:50.857Z,96770.75
2023-04-26T12:01:22.066Z,96770.75
2023-04-26T12:03:55.743Z,96775.56
2023-04-26T12:06:43.473Z,96769.31
2023-04-26T12:09:11.608Z,96769.31
2023-04-26T12:11:39.554Z,96766.44
2023-04-26T12:14:08.027Z,96758.06
2023-04-26T12:16:38.332Z,96772.47
2023-04-26T12:19:09.014Z,96766.81
2023-04-26T12:21:45.172Z,96766.81
2023-04-26T12:24:26.774Z,96762.00
2023-04-26T12:26:53.675Z,96759.91
2023-04-26T12:29:20.514Z,96768.03
2023-04-26T12:31:47.836Z,96772.25
2023-04-26T12:34:14.659Z,96768.28
2023-04-26T12:36:44.437Z,96758.91
2023-04-26T12:39:14.322Z,96760.41
2023-04-26T12:41:41.879Z,96765.78
2023-04-26T12:44:09.909Z,96760.41
2023-04-26T12:46:37.059Z,96751.88
2023-04-26T12:49:04.599Z,96753.34
2023-04-26T12:51:31.994Z,96746.06
2023-04-26T12:53:58.951Z,96741.47
2023-04-26T12:56:25.885Z,96748.38
2023-04-26T12:58:52.692Z,96750.91
2023-04-26T13:01:19.674Z,96752.34
2023-04-26T13:03:46.845Z,96748.41
2023-04-26T13:06:13.858Z,96754.25
2023-04-26T13:08:42.289Z,96746.16
2023-04-26T13:11:09.075Z,96749.91
2023-04-26T13:13:43.139Z,96749.28
2023-04-26T13:16:12.330Z,96745.34
2023-04-26T13:18:40.369Z,96747.84
2023-04-26T13:21:07.440Z,96749.94
2023-04-26T13:23:34.239Z,96744.94
2023-04-26T13:26:01.005Z,96747.25
2023-04-26T13:28:27.824Z,96746.81
2023-04-26T13:30:55.742Z,96742.66
2023-04-26T13:33:22.657Z,96743.88
2023-04-26T13:35:49.480Z,96746.16
2023-04-26T13:38:16.784Z,96747.00
2023-04-26T13:40:44.160Z,96733.63
2023-04-26T13:43:11.154Z,96737.38
2023-04-26T13:45:38.744Z,96744.44
2023-04-26T13:48:05.729Z,96741.75
2023-04-26T13:50:32.581Z,96738.81
2023-04-26T13:53:00.147Z,96733.81
2023-04-26T13:55:26.946Z,96728.81
2023-04-26T13:57:53.795Z,96732.59
2023-04-26T14:00:21.249Z,96734.44
2023-04-26T14:02:49.419Z,96732.09
2023-04-26T14:05:16.621Z,96730.78
2023-04-26T14:07:43.753Z,96726.59
2023-04-26T14:10:12.103Z,96727.00
2023-04-26T14:12:39.636Z,96728.66
2023-04-26T14:15:07.702Z,96723.06
2023-04-26T14:17:34.581Z,96725.56
2023-04-26T14:20:01.542Z,96722.44
2023-04-26T14:22:28.372Z,96722.22
2023-04-26T14:24:55.202Z,96717.25
2023-04-26T14:27:22.000Z,96713.91
2023-04-26T14:29:48.864Z,96716.00
2023-04-26T14:32:15.856Z,96713.97
2023-04-26T14:34:43.026Z,96720.47
2023-04-26T14:37:10.319Z,96719.03
2023-04-26T14:39:37.292Z,96720.28
2023-04-26T14:42:04.775Z,96723.00
2023-04-26T14:44:31.800Z,96727.34
2023-04-26T14:46:58.645Z,96722.53
2023-04-26T14:49:25.651Z,96727.53
2023-04-26T14:51:53.729Z,96728.81
2023-04-26T14:54:21.393Z,96726.28
2023-04-26T14:56:48.679Z,96724.22
2023-04-26T14:59:15.967Z,96722.72
2023-04-26T15:01:43.031Z,96723.78
2023-04-26T15:04:10.171Z,96722.72
2023-04-26T15:06:37.130Z,96725.66
2023-04-26T15:09:04.519Z,96711.69
2023-04-26T15:11:31.364Z,96708.19
2023-04-26T15:13:58.333Z,96711.72
2023-04-26T15:16:25.265Z,96711.13
2023-04-26T15:18:52.148Z,96709.88
2023-04-26T15:21:19.420Z,96709.06
2023-04-26T15:23:46.500Z,96708.00
2023-04-26T15:26:14.253Z,96711.97
2023-04-26T15:28:41.142Z,96707.59
2023-04-26T15:31:09.834Z,96711.34
2023-04-26T15:33:36.721Z,96696.31
2023-04-26T15:36:03.937Z,96697.75
2023-04-26T15:38:30.745Z,96699.00
2023-04-26T15:40:57.631Z,96708.22
2023-04-26T15:43:24.429Z,96702.16
2023-04-26T15:45:51.474Z,96700.69
2023-04-26T15:48:18.378Z,96693.19
2023-04-26T15:50:46.119Z,96695.69
2023-04-26T15:53:12.941Z,96691.88
2023-04-26T15:55:39.708Z,96697.25
2023-04-26T15:58:06.501Z,96700.13
2023-04-26T16:00:33.944Z,96695.38
2023-04-26T16:03:02.145Z,96703.19
2023-04-26T16:05:29.261Z,96707.47
2023-04-26T16:07:56.255Z,96711.34
2023-04-26T16:10:23.760Z,96703.34
2023-04-26T16:12:50.805Z,96705.13
2023-04-26T16:15:18.042Z,96708.22
2023-04-26T16:17:44.949Z,96702.50
2023-04-26T16:20:12.100Z,96698.41
2023-04-26T16:22:38.921Z,96698.97
2023-04-26T16:25:06.862Z,96692.53
2023-04-26T16:27:33.936Z,96695.41
2023-04-26T16:30:00.998Z,96689.88
2023-04-26T16:32:30.525Z,96690.41
2023-04-26T16:34:57.420Z,96693.56
2023-04-26T16:37:24.244Z,96699.34
2023-04-26T16:39:55.709Z,96692.31
2023-04-26T16:42:22.740Z,96690.09
2023-04-26T16:44:49.558Z,96697.69
2023-04-26T16:47:16.386Z,96688.13
2023-04-26T16:49:43.223Z,96692.94
2023-04-26T16:52:10.110Z,96702.91
2023-04-26T16:54:36.957Z,96700.78
2023-04-26T16:57:04.419Z,96705.50
2023-04-26T16:59:31.346Z,96696.22
2023-04-26T17:01:58.282Z,96701.94
2023-04-26T17:04:26.419Z,96698.34
2023-04-26T17:06:54.576Z,96704.09
2023-04-26T17:09:21.504Z,96702.19
2023-04-26T17:11:49.875Z,96699.72
2023-04-26T17:14:16.758Z,96707.22
2023-04-26T17:16:43.698Z,96706.53
2023-04-26T17:19:10.755Z,96705.34
2023-04-26T17:21:37.662Z,96711.63
2023-04-26T17:24:04.697Z,96717.63
2023-04-26T17:26:31.521Z,96716.88
2023-04-26T17:28:58.297Z,96712.03
2023-04-26T17:31:25.420Z,96714.53
2023-04-26T17:33:52.270Z,96723.25
2023-04-26T17:36:19.399Z,96718.72
2023-04-26T17:38:46.243Z,96722.78
2023-04-26T17:41:13.522Z,96725.13
2023-04-26T17:43:40.541Z,96724.75
2023-04-26T17:46:07.509Z,96732.44
2023-04-26T17:48:34.419Z,96731.97
2023-04-26T17:51:01.265Z,96731.31
2023-04-26T17:53:28.105Z,96735.66
2023-04-26T17:55:55.188Z,96729.31
2023-04-26T17:58:21.969Z,96737.97
2023-04-26T18:00:49.434Z,96739.78
2023-04-26T18:03:16.406Z,96742.41
2023-04-26T18:05:43.779Z,96742.34
2023-04-26T18:08:10.651Z,96743.50
2023-04-26T18:10:37.517Z,96745.72
2023-04-26T18:13:04.319Z,96745.88
2023-04-26T18:15:31.294Z,96743.91
2023-04-26T18:17:58.142Z,96746.75
2023-04-26T18:20:24.943Z,96749.78
2023-04-26T18:22:51.748Z,96748.63
2023-04-26T18:25:18.931Z,96755.38
2023-04-26T18:27:46.913Z,96756.09
2023-04-26T18:30:13.873Z,96756.59
2023-04-26T18:32:41.200Z,96767.91
2023-04-26T18:35:08.528Z,96772.13
2023-04-26T18:37:36.128Z,96774.47
2023-04-26T18:40:04.945Z,96770.38
2023-04-26T18:42:31.787Z,96769.16
2023-04-26T18:44:59.599Z,96775.50
2023-04-26T18:47:26.629Z,96768.53
2023-04-26T18:49:53.506Z,96768.63
2023-04-26T18:52:22.577Z,96778.31
2023-04-26T18:54:49.356Z,96774.50
2023-04-26T18:57:21.817Z,96778.13
2023-04-26T18:59:49.280Z,96780.69
2023-04-26T19:02:16.112Z,96783.28
2023-04-26T19:04:43.186Z,96785.03
2023-04-26T19:07:10.097Z,96790.50
2023-04-26T19:09:50.379Z,96800.34
2023-04-26T19:12:20.431Z,96802.09
2023-04-26T19:14:47.268Z,96802.00
2023-04-26T19:17:14.308Z,96807.09
2023-04-26T19:19:41.735Z,96814.88
2023-04-26T19:22:08.571Z,96806.47
2023-04-26T19:24:35.686Z,96811.59
2023-04-26T19:27:02.769Z,96815.81
2023-04-26T19:29:30.952Z,96815.50
2023-04-26T19:31:59.912Z,96817.72
2023-04-26T19:34:26.833Z,96824.50
2023-04-26T19:36:53.670Z,96828.41
2023-04-26T19:39:22.641Z,96821.69
2023-04-26T19:41:51.834Z,96828.31
2023-04-26T19:44:20.265Z,96829.47
2023-04-26T19:46:47.172Z,96831.47
2023-04-26T19:49:14.007Z,96833.53
2023-04-26T19:51:41.139Z,96830.16
2023-04-26T19:54:07.913Z,96829.50
2023-04-26T19:56:34.725Z,96825.13
2023-04-26T19:59:01.546Z,96837.94
2023-04-26T20:01:28.593Z,96833.69
2023-04-26T20:03:55.711Z,96834.06
2023-04-26T20:06:22.730Z,96832.56
2023-04-26T20:08:49.508Z,96835.59
2023-04-26T20:11:17.361Z,96839.66
2023-04-26T20:13:45.280Z,96842.69
2023-04-26T20:16:12.645Z,96846.75
2023-04-26T20:18:39.653Z,96843.59
2023-04-26T20:21:06.517Z,96839.56
2023-04-26T20:23:33.469Z,96839.22
2023-04-26T20:26:00.555Z,96848.50
2023-04-26T20:28:27.371Z,96849.69
2023-04-26T20:30:54.208Z,96848.34
2023-04-26T20:33:21.265Z,96853.25
2023-04-26T20:35:48.055Z,96849.22
2023-04-26T20:38:14.852Z,96846.88
2023-04-26T20:40:41.747Z,96844.69
2023-04-26T20:43:08.615Z,96849.59
2023-04-26T20:45:35.549Z,96842.03
2023-04-26T20:48:02.415Z,96845.41
2023-04-26T20:50:29.284Z,96844.06
2023-04-26T20:52:56.216Z,96848.94
2023-04-26T20:55:23.141Z,96853.81
2023-04-26T20:57:49.995Z,96845.25
2023-04-26T21:00:17.204Z,96849.28
2023-04-26T21:02:44.152Z,96845.28
2023-04-26T21:05:11.091Z,96840.25
2023-04-26T21:07:37.924Z,96841.59
2023-04-26T21:10:05.239Z,96835.50
2023-04-26T21:12:32.107Z,96845.78
2023-04-26T21:14:59.028Z,96845.94
2023-04-26T21:17:25.889Z,96846.28
2023-04-26T21:19:52.692Z,96843.91
2023-04-26T21:22:19.505Z,96838.69
2023-04-26T21:24:46.308Z,96836.34
2023-04-26T21:27:13.146Z,96843.75
2023-04-26T21:29:39.917Z,96843.91
2023-04-26T21:32:06.704Z,96841.38
2023-04-26T21:34:33.458Z,96848.09
2023-04-26T21:37:00.328Z,96842.22
2023-04-26T21:39:27.133Z,96847.94
2023-04-26T21:41:53.910Z,96848.28
2023-04-26T21:44:20.806Z,96844.91
2023-04-26T21:46:47.689Z,96845.25
2023-04-26T21:49:14.500Z,96846.25
2023-04-26T21:51:41.318Z,96849.94
2023-04-26T21:54:08.143Z,96842.06
2023-04-26T21:56:34.915Z,96852.13
2023-04-26T21:59:02.510Z,96848.78
2023-04-26T22:01:29.498Z,96847.94
2023-04-26T22:03:56.490Z,96854.28
2023-04-26T22:06:23.466Z,96858.00
2023-04-26T22:08:50.461Z,96855.63
2023-04-26T22:11:17.258Z,96847.75
2023-04-26T22:13:44.099Z,96855.97
2023-04-26T22:16:11.006Z,96850.75
2023-04-26T22:18:37.826Z,96848.41
2023-04-26T22:21:04.599Z,96851.25
2023-04-26T22:23:31.476Z,96853.09
2023-04-26T22:26:00.469Z,96848.91
2023-04-26T22:28:27.280Z,96857.31
2023-04-26T22:30:54.116Z,96859.31
2023-04-26T22:33:21.435Z,96851.59
2023-04-26T22:35:48.314Z,96851.91
2023-04-26T22:38:15.149Z,96850.25
2023-04-26T22:40:42.402Z,96852.22
2023-04-26T22:43:09.220Z,96851.56
2023-04-26T22:45:37.040Z,96853.56
2023-04-26T22:48:04.180Z,96858.94
2023-04-26T22:50:31.238Z,96864.31
2023-04-26T22:52:58.054Z,96859.25
2023-04-26T22:55:25.003Z,96858.59
2023-04-26T22:57:51.897Z,96851.69
2023-04-26T23:00:19.850Z,96851.88
2023-04-26T23:02:46.821Z,96865.63
2023-04-26T23:05:13.714Z,96862.25
2023-04-26T23:07:40.609Z,96863.25
2023-04-26T23:10:08.245Z,96866.28
2023-04-26T23:12:38.579Z,96871.66
2023-04-26T23:15:06.235Z,96870.81
2023-04-26T23:17:34.406Z,96863.72
2023-04-26T23:20:01.253Z,96864.75
2023-04-26T23:22:28.152Z,96857.53
2023-04-26T23:24:55.042Z,96862.06
2023-04-26T23:27:21.876Z,96855.84
2023-04-26T23:29:50.620Z,96864.09
2023-04-26T23:32:17.421Z,96863.06
2023-04-26T23:34:44.374Z,96861.22
2023-04-26T23:37:11.250Z,96861.22
2023-04-26T23:39:38.056Z,96856.88
2023-04-26T23:42:04.943Z,96858.53
2023-04-26T23:44:31.739Z,96856.03
2023-04-26T23:46:58.517Z,96857.84
2023-04-26T23:49:25.682Z,96861.41
2023-04-26T23:51:52.517Z,96863.22
2023-04-26T23:54:19.413Z,96862.56
2023-04-26T23:56:46.457Z,96861.19
2023-04-26T23:59:14.234Z,96855.31
